sensor_id;sensor_type;location;lat;lon;timestamp;P1;durP1;ratioP1;P2;durP2;ratioP2
10657;SDS011;5377;43.276;26.930;2023-11-21T00:02:16;30.40;;;21.90;;
10657;SDS011;5377;43.276;26.930;2023-11-21T00:04:44;19.63;;;15.37;;
10657;SDS011;5377;43.276;26.930;2023-11-21T00:07:11;29.37;;;20.13;;
10657;SDS011;5377;43.276;26.930;2023-11-21T00:09:37;35.10;;;22.73;;
10657;SDS011;5377;43.276;26.930;2023-11-21T00:12:04;26.07;;;18.23;;
10657;SDS011;5377;43.276;26.930;2023-11-21T00:14:35;23.63;;;19.20;;
10657;SDS011;5377;43.276;26.930;2023-11-21T00:17:01;26.10;;;18.13;;
10657;SDS011;5377;43.276;26.930;2023-11-21T00:19:28;26.33;;;19.50;;
10657;SDS011;5377;43.276;26.930;2023-11-21T00:21:57;25.40;;;18.87;;
10657;SDS011;5377;43.276;26.930;2023-11-21T00:24:24;21.53;;;18.03;;
10657;SDS011;5377;43.276;26.930;2023-11-21T00:26:51;17.57;;;13.40;;
10657;SDS011;5377;43.276;26.930;2023-11-21T00:29:18;24.83;;;18.40;;
10657;SDS011;5377;43.276;26.930;2023-11-21T00:31:45;24.03;;;18.90;;
10657;SDS011;5377;43.276;26.930;2023-11-21T00:34:12;24.60;;;20.17;;
10657;SDS011;5377;43.276;26.930;2023-11-21T00:36:39;27.47;;;20.70;;
10657;SDS011;5377;43.276;26.930;2023-11-21T00:39:08;34.57;;;22.67;;
10657;SDS011;5377;43.276;26.930;2023-11-21T00:41:35;32.27;;;23.33;;
10657;SDS011;5377;43.276;26.930;2023-11-21T00:44:02;37.27;;;24.63;;
10657;SDS011;5377;43.276;26.930;2023-11-21T00:46:29;26.73;;;18.73;;
10657;SDS011;5377;43.276;26.930;2023-11-21T00:48:56;25.57;;;17.67;;
10657;SDS011;5377;43.276;26.930;2023-11-21T00:51:23;24.60;;;18.70;;
10657;SDS011;5377;43.276;26.930;2023-11-21T00:53:49;22.30;;;18.60;;
10657;SDS011;5377;43.276;26.930;2023-11-21T00:56:18;24.77;;;18.60;;
10657;SDS011;5377;43.276;26.930;2023-11-21T00:58:45;24.87;;;18.83;;
10657;SDS011;5377;43.276;26.930;2023-11-21T01:01:15;24.37;;;18.23;;
10657;SDS011;5377;43.276;26.930;2023-11-21T01:03:41;29.37;;;22.17;;
10657;SDS011;5377;43.276;26.930;2023-11-21T01:06:08;32.03;;;24.17;;
10657;SDS011;5377;43.276;26.930;2023-11-21T01:08:35;23.13;;;18.50;;
10657;SDS011;5377;43.276;26.930;2023-11-21T01:11:02;20.97;;;17.63;;
10657;SDS011;5377;43.276;26.930;2023-11-21T01:13:31;21.37;;;16.90;;
10657;SDS011;5377;43.276;26.930;2023-11-21T01:15:57;24.17;;;16.23;;
10657;SDS011;5377;43.276;26.930;2023-11-21T01:18:24;22.03;;;17.17;;
10657;SDS011;5377;43.276;26.930;2023-11-21T01:20:51;24.67;;;18.40;;
10657;SDS011;5377;43.276;26.930;2023-11-21T01:23:18;22.10;;;16.97;;
10657;SDS011;5377;43.276;26.930;2023-11-21T01:25:45;30.50;;;22.23;;
10657;SDS011;5377;43.276;26.930;2023-11-21T01:28:11;30.13;;;22.10;;
10657;SDS011;5377;43.276;26.930;2023-11-21T01:30:39;26.90;;;20.57;;
10657;SDS011;5377;43.276;26.930;2023-11-21T01:33:06;26.77;;;20.77;;
10657;SDS011;5377;43.276;26.930;2023-11-21T01:35:33;28.43;;;19.37;;
10657;SDS011;5377;43.276;26.930;2023-11-21T01:38:01;25.73;;;19.73;;
10657;SDS011;5377;43.276;26.930;2023-11-21T01:40:29;21.00;;;18.03;;
10657;SDS011;5377;43.276;26.930;2023-11-21T01:42:56;24.83;;;19.10;;
10657;SDS011;5377;43.276;26.930;2023-11-21T01:45:23;24.10;;;17.53;;
10657;SDS011;5377;43.276;26.930;2023-11-21T01:47:52;24.30;;;20.47;;
10657;SDS011;5377;43.276;26.930;2023-11-21T01:50:19;26.47;;;19.20;;
10657;SDS011;5377;43.276;26.930;2023-11-21T01:52:47;25.10;;;17.73;;
10657;SDS011;5377;43.276;26.930;2023-11-21T01:55:15;26.20;;;20.73;;
10657;SDS011;5377;43.276;26.930;2023-11-21T01:57:44;22.40;;;16.57;;
10657;SDS011;5377;43.276;26.930;2023-11-21T02:00:12;17.90;;;14.20;;
10657;SDS011;5377;43.276;26.930;2023-11-21T02:02:42;21.30;;;15.47;;
10657;SDS011;5377;43.276;26.930;2023-11-21T02:05:11;22.23;;;16.07;;
10657;SDS011;5377;43.276;26.930;2023-11-21T02:07:38;15.83;;;12.63;;
10657;SDS011;5377;43.276;26.930;2023-11-21T02:10:05;20.03;;;15.70;;
10657;SDS011;5377;43.276;26.930;2023-11-21T02:12:33;18.50;;;14.87;;
10657;SDS011;5377;43.276;26.930;2023-11-21T02:15:00;20.37;;;13.87;;
10657;SDS011;5377;43.276;26.930;2023-11-21T02:17:28;18.00;;;12.83;;
10657;SDS011;5377;43.276;26.930;2023-11-21T02:19:55;20.20;;;16.80;;
10657;SDS011;5377;43.276;26.930;2023-11-21T02:22:23;20.43;;;14.90;;
10657;SDS011;5377;43.276;26.930;2023-11-21T02:24:53;25.50;;;16.47;;
10657;SDS011;5377;43.276;26.930;2023-11-21T02:27:20;18.27;;;14.50;;
10657;SDS011;5377;43.276;26.930;2023-11-21T02:29:48;20.17;;;14.97;;
10657;SDS011;5377;43.276;26.930;2023-11-21T02:32:15;18.83;;;15.40;;
10657;SDS011;5377;43.276;26.930;2023-11-21T02:34:44;15.30;;;13.50;;
10657;SDS011;5377;43.276;26.930;2023-11-21T02:37:11;15.87;;;12.53;;
10657;SDS011;5377;43.276;26.930;2023-11-21T02:39:38;19.20;;;14.80;;
10657;SDS011;5377;43.276;26.930;2023-11-21T02:42:06;16.70;;;11.80;;
10657;SDS011;5377;43.276;26.930;2023-11-21T02:44:33;18.53;;;12.07;;
10657;SDS011;5377;43.276;26.930;2023-11-21T02:47:00;14.70;;;11.20;;
10657;SDS011;5377;43.276;26.930;2023-11-21T02:49:28;18.23;;;12.80;;
10657;SDS011;5377;43.276;26.930;2023-11-21T02:51:56;19.43;;;12.13;;
10657;SDS011;5377;43.276;26.930;2023-11-21T02:54:23;19.60;;;14.37;;
10657;SDS011;5377;43.276;26.930;2023-11-21T02:56:50;16.20;;;11.87;;
10657;SDS011;5377;43.276;26.930;2023-11-21T02:59:18;17.93;;;12.37;;
10657;SDS011;5377;43.276;26.930;2023-11-21T03:01:45;16.83;;;13.23;;
10657;SDS011;5377;43.276;26.930;2023-11-21T03:04:12;16.33;;;12.83;;
10657;SDS011;5377;43.276;26.930;2023-11-21T03:06:42;16.50;;;10.90;;
10657;SDS011;5377;43.276;26.930;2023-11-21T03:09:09;14.20;;;10.93;;
10657;SDS011;5377;43.276;26.930;2023-11-21T03:11:37;13.63;;;10.30;;
10657;SDS011;5377;43.276;26.930;2023-11-21T03:14:03;17.23;;;11.87;;
10657;SDS011;5377;43.276;26.930;2023-11-21T03:16:33;14.20;;;10.50;;
10657;SDS011;5377;43.276;26.930;2023-11-21T03:19:00;17.00;;;11.67;;
10657;SDS011;5377;43.276;26.930;2023-11-21T03:21:27;19.27;;;13.23;;
10657;SDS011;5377;43.276;26.930;2023-11-21T03:23:54;18.47;;;11.70;;
10657;SDS011;5377;43.276;26.930;2023-11-21T03:26:21;16.37;;;12.03;;
10657;SDS011;5377;43.276;26.930;2023-11-21T03:28:47;19.20;;;13.60;;
10657;SDS011;5377;43.276;26.930;2023-11-21T03:31:15;16.90;;;11.97;;
10657;SDS011;5377;43.276;26.930;2023-11-21T03:33:43;14.17;;;12.20;;
10657;SDS011;5377;43.276;26.930;2023-11-21T03:36:10;13.57;;;8.83;;
10657;SDS011;5377;43.276;26.930;2023-11-21T03:38:37;11.63;;;9.27;;
10657;SDS011;5377;43.276;26.930;2023-11-21T03:41:05;14.60;;;9.53;;
10657;SDS011;5377;43.276;26.930;2023-11-21T03:43:32;16.20;;;10.33;;
10657;SDS011;5377;43.276;26.930;2023-11-21T03:45:58;15.77;;;11.20;;
10657;SDS011;5377;43.276;26.930;2023-11-21T03:48:25;15.20;;;10.63;;
10657;SDS011;5377;43.276;26.930;2023-11-21T03:50:53;24.20;;;18.57;;
10657;SDS011;5377;43.276;26.930;2023-11-21T03:53:20;14.53;;;11.37;;
10657;SDS011;5377;43.276;26.930;2023-11-21T03:55:47;14.70;;;11.27;;
10657;SDS011;5377;43.276;26.930;2023-11-21T03:58:14;19.03;;;12.97;;
10657;SDS011;5377;43.276;26.930;2023-11-21T04:00:41;13.87;;;12.37;;
10657;SDS011;5377;43.276;26.930;2023-11-21T04:03:08;14.63;;;11.53;;
10657;SDS011;5377;43.276;26.930;2023-11-21T04:05:34;22.20;;;16.60;;
10657;SDS011;5377;43.276;26.930;2023-11-21T04:08:03;18.33;;;14.63;;
10657;SDS011;5377;43.276;26.930;2023-11-21T04:10:30;18.47;;;11.93;;
10657;SDS011;5377;43.276;26.930;2023-11-21T04:12:57;19.50;;;13.13;;
10657;SDS011;5377;43.276;26.930;2023-11-21T04:15:23;18.00;;;11.53;;
10657;SDS011;5377;43.276;26.930;2023-11-21T04:17:50;16.33;;;12.60;;
10657;SDS011;5377;43.276;26.930;2023-11-21T04:20:17;17.40;;;14.43;;
10657;SDS011;5377;43.276;26.930;2023-11-21T04:22:44;22.30;;;15.97;;
10657;SDS011;5377;43.276;26.930;2023-11-21T04:25:13;25.07;;;17.47;;
10657;SDS011;5377;43.276;26.930;2023-11-21T04:27:41;25.53;;;16.90;;
10657;SDS011;5377;43.276;26.930;2023-11-21T04:30:09;22.50;;;15.07;;
10657;SDS011;5377;43.276;26.930;2023-11-21T04:32:36;28.37;;;20.53;;
10657;SDS011;5377;43.276;26.930;2023-11-21T04:35:04;17.87;;;13.43;;
10657;SDS011;5377;43.276;26.930;2023-11-21T04:37:31;24.03;;;18.97;;
10657;SDS011;5377;43.276;26.930;2023-11-21T04:39:58;32.47;;;20.80;;
10657;SDS011;5377;43.276;26.930;2023-11-21T04:42:27;50.53;;;35.73;;
10657;SDS011;5377;43.276;26.930;2023-11-21T04:44:54;33.80;;;23.87;;
10657;SDS011;5377;43.276;26.930;2023-11-21T04:47:20;29.67;;;21.27;;
10657;SDS011;5377;43.276;26.930;2023-11-21T04:49:48;12.93;;;9.60;;
10657;SDS011;5377;43.276;26.930;2023-11-21T04:52:14;28.83;;;20.43;;
10657;SDS011;5377;43.276;26.930;2023-11-21T04:54:41;36.70;;;24.87;;
10657;SDS011;5377;43.276;26.930;2023-11-21T04:57:08;39.80;;;25.83;;
10657;SDS011;5377;43.276;26.930;2023-11-21T04:59:36;22.43;;;15.70;;
10657;SDS011;5377;43.276;26.930;2023-11-21T05:02:03;21.87;;;16.43;;
10657;SDS011;5377;43.276;26.930;2023-11-21T05:04:30;20.77;;;17.07;;
10657;SDS011;5377;43.276;26.930;2023-11-21T05:06:57;21.00;;;16.70;;
10657;SDS011;5377;43.276;26.930;2023-11-21T05:09:25;24.87;;;18.13;;
10657;SDS011;5377;43.276;26.930;2023-11-21T05:11:53;23.43;;;17.87;;
10657;SDS011;5377;43.276;26.930;2023-11-21T05:14:20;25.70;;;20.67;;
10657;SDS011;5377;43.276;26.930;2023-11-21T05:16:48;26.80;;;21.33;;
10657;SDS011;5377;43.276;26.930;2023-11-21T05:19:16;34.37;;;25.47;;
10657;SDS011;5377;43.276;26.930;2023-11-21T05:21:42;35.83;;;26.00;;
10657;SDS011;5377;43.276;26.930;2023-11-21T05:24:09;40.07;;;29.27;;
10657;SDS011;5377;43.276;26.930;2023-11-21T05:26:36;46.23;;;34.47;;
10657;SDS011;5377;43.276;26.930;2023-11-21T05:29:03;46.13;;;34.30;;
10657;SDS011;5377;43.276;26.930;2023-11-21T05:31:30;42.53;;;33.20;;
10657;SDS011;5377;43.276;26.930;2023-11-21T05:33:58;49.00;;;34.93;;
10657;SDS011;5377;43.276;26.930;2023-11-21T05:36:25;45.90;;;34.30;;
10657;SDS011;5377;43.276;26.930;2023-11-21T05:38:52;46.37;;;35.00;;
10657;SDS011;5377;43.276;26.930;2023-11-21T05:41:19;53.07;;;37.77;;
10657;SDS011;5377;43.276;26.930;2023-11-21T05:43:47;48.27;;;37.80;;
10657;SDS011;5377;43.276;26.930;2023-11-21T05:46:13;58.17;;;41.13;;
10657;SDS011;5377;43.276;26.930;2023-11-21T05:48:40;82.23;;;53.07;;
10657;SDS011;5377;43.276;26.930;2023-11-21T05:51:08;111.43;;;75.67;;
10657;SDS011;5377;43.276;26.930;2023-11-21T05:53:37;90.20;;;62.00;;
10657;SDS011;5377;43.276;26.930;2023-11-21T05:56:04;66.50;;;48.53;;
10657;SDS011;5377;43.276;26.930;2023-11-21T05:58:31;45.87;;;32.70;;
10657;SDS011;5377;43.276;26.930;2023-11-21T06:00:58;58.33;;;44.30;;
10657;SDS011;5377;43.276;26.930;2023-11-21T06:03:25;51.73;;;36.87;;
10657;SDS011;5377;43.276;26.930;2023-11-21T06:05:51;50.70;;;36.87;;
10657;SDS011;5377;43.276;26.930;2023-11-21T06:08:20;66.23;;;45.83;;
10657;SDS011;5377;43.276;26.930;2023-11-21T06:10:47;70.87;;;45.77;;
10657;SDS011;5377;43.276;26.930;2023-11-21T06:13:14;66.67;;;43.13;;
10657;SDS011;5377;43.276;26.930;2023-11-21T06:15:41;64.33;;;41.63;;
10657;SDS011;5377;43.276;26.930;2023-11-21T06:18:08;67.63;;;44.23;;
10657;SDS011;5377;43.276;26.930;2023-11-21T06:20:36;62.30;;;44.17;;
10657;SDS011;5377;43.276;26.930;2023-11-21T06:23:03;63.70;;;44.43;;
10657;SDS011;5377;43.276;26.930;2023-11-21T06:25:32;66.40;;;47.33;;
10657;SDS011;5377;43.276;26.930;2023-11-21T06:28:01;72.73;;;48.50;;
10657;SDS011;5377;43.276;26.930;2023-11-21T06:30:28;85.73;;;51.63;;
10657;SDS011;5377;43.276;26.930;2023-11-21T06:32:55;84.17;;;54.67;;
10657;SDS011;5377;43.276;26.930;2023-11-21T06:35:21;77.90;;;53.23;;
10657;SDS011;5377;43.276;26.930;2023-11-21T06:37:48;84.33;;;58.60;;
10657;SDS011;5377;43.276;26.930;2023-11-21T06:40:16;72.10;;;50.97;;
10657;SDS011;5377;43.276;26.930;2023-11-21T06:42:44;73.35;;;49.88;;
10657;SDS011;5377;43.276;26.930;2023-11-21T06:45:12;66.70;;;46.53;;
10657;SDS011;5377;43.276;26.930;2023-11-21T06:47:40;54.85;;;38.65;;
10657;SDS011;5377;43.276;26.930;2023-11-21T06:50:07;43.92;;;33.30;;
10657;SDS011;5377;43.276;26.930;2023-11-21T06:52:34;40.85;;;32.45;;
10657;SDS011;5377;43.276;26.930;2023-11-21T06:55:01;57.85;;;32.95;;
10657;SDS011;5377;43.276;26.930;2023-11-21T06:57:28;45.28;;;33.53;;
10657;SDS011;5377;43.276;26.930;2023-11-21T06:59:56;38.92;;;28.42;;
10657;SDS011;5377;43.276;26.930;2023-11-21T07:02:23;56.33;;;38.97;;
10657;SDS011;5377;43.276;26.930;2023-11-21T07:04:50;35.47;;;29.50;;
10657;SDS011;5377;43.276;26.930;2023-11-21T07:07:18;38.20;;;30.80;;
10657;SDS011;5377;43.276;26.930;2023-11-21T07:09:44;29.15;;;22.10;;
10657;SDS011;5377;43.276;26.930;2023-11-21T07:12:12;39.50;;;27.88;;
10657;SDS011;5377;43.276;26.930;2023-11-21T07:14:39;25.85;;;23.08;;
10657;SDS011;5377;43.276;26.930;2023-11-21T07:17:09;19.50;;;15.40;;
10657;SDS011;5377;43.276;26.930;2023-11-21T07:19:37;23.23;;;14.18;;
10657;SDS011;5377;43.276;26.930;2023-11-21T07:22:03;28.45;;;15.95;;
10657;SDS011;5377;43.276;26.930;2023-11-21T07:24:31;42.25;;;16.48;;
10657;SDS011;5377;43.276;26.930;2023-11-21T07:26:57;19.83;;;13.18;;
10657;SDS011;5377;43.276;26.930;2023-11-21T07:29:24;27.85;;;15.45;;
10657;SDS011;5377;43.276;26.930;2023-11-21T07:31:51;18.42;;;11.60;;
10657;SDS011;5377;43.276;26.930;2023-11-21T07:34:20;17.55;;;11.90;;
10657;SDS011;5377;43.276;26.930;2023-11-21T07:36:47;15.75;;;10.93;;
10657;SDS011;5377;43.276;26.930;2023-11-21T07:39:13;11.82;;;10.63;;
10657;SDS011;5377;43.276;26.930;2023-11-21T07:41:41;18.90;;;9.95;;
10657;SDS011;5377;43.276;26.930;2023-11-21T07:44:13;18.27;;;10.07;;
10657;SDS011;5377;43.276;26.930;2023-11-21T07:46:41;24.30;;;11.27;;
10657;SDS011;5377;43.276;26.930;2023-11-21T07:49:08;13.63;;;10.30;;
10657;SDS011;5377;43.276;26.930;2023-11-21T07:51:36;13.65;;;9.57;;
10657;SDS011;5377;43.276;26.930;2023-11-21T07:54:03;16.35;;;11.38;;
10657;SDS011;5377;43.276;26.930;2023-11-21T07:56:30;27.98;;;14.98;;
10657;SDS011;5377;43.276;26.930;2023-11-21T07:58:57;21.17;;;14.95;;
10657;SDS011;5377;43.276;26.930;2023-11-21T08:01:24;23.17;;;19.35;;
10657;SDS011;5377;43.276;26.930;2023-11-21T08:03:53;27.02;;;17.42;;
10657;SDS011;5377;43.276;26.930;2023-11-21T08:06:22;29.00;;;20.13;;
10657;SDS011;5377;43.276;26.930;2023-11-21T08:08:51;30.70;;;18.52;;
10657;SDS011;5377;43.276;26.930;2023-11-21T08:11:18;28.88;;;17.50;;
10657;SDS011;5377;43.276;26.930;2023-11-21T08:13:44;31.40;;;18.08;;
10657;SDS011;5377;43.276;26.930;2023-11-21T08:16:12;37.30;;;17.30;;
10657;SDS011;5377;43.276;26.930;2023-11-21T08:18:39;34.00;;;20.08;;
10657;SDS011;5377;43.276;26.930;2023-11-21T08:21:06;38.70;;;19.23;;
10657;SDS011;5377;43.276;26.930;2023-11-21T08:23:33;24.70;;;17.67;;
10657;SDS011;5377;43.276;26.930;2023-11-21T08:26:01;30.73;;;19.35;;
10657;SDS011;5377;43.276;26.930;2023-11-21T08:28:28;24.00;;;18.38;;
10657;SDS011;5377;43.276;26.930;2023-11-21T08:30:55;38.28;;;21.00;;
10657;SDS011;5377;43.276;26.930;2023-11-21T08:33:22;40.65;;;20.45;;
10657;SDS011;5377;43.276;26.930;2023-11-21T08:35:49;40.03;;;19.73;;
10657;SDS011;5377;43.276;26.930;2023-11-21T08:38:16;32.33;;;20.10;;
10657;SDS011;5377;43.276;26.930;2023-11-21T08:40:43;24.88;;;17.63;;
10657;SDS011;5377;43.276;26.930;2023-11-21T08:43:12;36.20;;;17.40;;
10657;SDS011;5377;43.276;26.930;2023-11-21T08:45:39;24.60;;;17.17;;
10657;SDS011;5377;43.276;26.930;2023-11-21T08:48:06;24.58;;;14.90;;
10657;SDS011;5377;43.276;26.930;2023-11-21T08:50:33;26.90;;;16.27;;
10657;SDS011;5377;43.276;26.930;2023-11-21T08:53:00;30.85;;;15.38;;
10657;SDS011;5377;43.276;26.930;2023-11-21T08:55:27;50.20;;;18.73;;
10657;SDS011;5377;43.276;26.930;2023-11-21T08:57:54;37.47;;;18.85;;
10657;SDS011;5377;43.276;26.930;2023-11-21T09:00:22;30.13;;;15.18;;
10657;SDS011;5377;43.276;26.930;2023-11-21T09:02:48;34.10;;;15.88;;
10657;SDS011;5377;43.276;26.930;2023-11-21T09:05:15;33.92;;;15.40;;
10657;SDS011;5377;43.276;26.930;2023-11-21T09:07:42;25.42;;;14.63;;
10657;SDS011;5377;43.276;26.930;2023-11-21T09:10:11;16.83;;;13.25;;
10657;SDS011;5377;43.276;26.930;2023-11-21T09:12:38;29.98;;;14.35;;
10657;SDS011;5377;43.276;26.930;2023-11-21T09:15:05;20.33;;;14.27;;
10657;SDS011;5377;43.276;26.930;2023-11-21T09:17:34;31.60;;;14.57;;
10657;SDS011;5377;43.276;26.930;2023-11-21T09:20:01;31.65;;;16.77;;
10657;SDS011;5377;43.276;26.930;2023-11-21T09:22:30;28.15;;;15.68;;
10657;SDS011;5377;43.276;26.930;2023-11-21T09:24:57;34.13;;;14.55;;
10657;SDS011;5377;43.276;26.930;2023-11-21T09:27:24;25.67;;;15.50;;
10657;SDS011;5377;43.276;26.930;2023-11-21T09:29:51;29.33;;;15.68;;
10657;SDS011;5377;43.276;26.930;2023-11-21T09:32:19;28.48;;;14.93;;
10657;SDS011;5377;43.276;26.930;2023-11-21T09:34:47;22.67;;;14.07;;
10657;SDS011;5377;43.276;26.930;2023-11-21T09:37:15;26.80;;;15.48;;
10657;SDS011;5377;43.276;26.930;2023-11-21T09:39:42;21.23;;;14.82;;
10657;SDS011;5377;43.276;26.930;2023-11-21T09:42:10;16.77;;;14.10;;
10657;SDS011;5377;43.276;26.930;2023-11-21T09:44:44;20.83;;;13.90;;
10657;SDS011;5377;43.276;26.930;2023-11-21T09:47:15;33.15;;;15.57;;
10657;SDS011;5377;43.276;26.930;2023-11-21T09:49:42;30.63;;;14.85;;
10657;SDS011;5377;43.276;26.930;2023-11-21T09:52:17;50.58;;;19.88;;
10657;SDS011;5377;43.276;26.930;2023-11-21T09:54:52;29.10;;;19.98;;
10657;SDS011;5377;43.276;26.930;2023-11-21T09:57:19;28.55;;;16.33;;
10657;SDS011;5377;43.276;26.930;2023-11-21T09:59:48;30.88;;;17.05;;
10657;SDS011;5377;43.276;26.930;2023-11-21T10:02:21;24.75;;;15.98;;
10657;SDS011;5377;43.276;26.930;2023-11-21T10:04:54;29.27;;;17.35;;
10657;SDS011;5377;43.276;26.930;2023-11-21T10:07:22;19.67;;;15.85;;
10657;SDS011;5377;43.276;26.930;2023-11-21T10:09:49;23.88;;;17.85;;
10657;SDS011;5377;43.276;26.930;2023-11-21T10:12:17;26.50;;;17.60;;
10657;SDS011;5377;43.276;26.930;2023-11-21T10:14:46;47.95;;;19.85;;
10657;SDS011;5377;43.276;26.930;2023-11-21T10:17:15;49.88;;;20.05;;
10657;SDS011;5377;43.276;26.930;2023-11-21T10:19:45;39.78;;;18.25;;
10657;SDS011;5377;43.276;26.930;2023-11-21T10:22:15;51.72;;;19.52;;
10657;SDS011;5377;43.276;26.930;2023-11-21T10:24:42;45.50;;;18.85;;
10657;SDS011;5377;43.276;26.930;2023-11-21T10:27:09;43.97;;;19.75;;
10657;SDS011;5377;43.276;26.930;2023-11-21T10:29:36;38.85;;;20.67;;
10657;SDS011;5377;43.276;26.930;2023-11-21T10:32:04;29.80;;;20.77;;
10657;SDS011;5377;43.276;26.930;2023-11-21T10:34:31;35.03;;;22.88;;
10657;SDS011;5377;43.276;26.930;2023-11-21T10:36:59;35.92;;;19.92;;
10657;SDS011;5377;43.276;26.930;2023-11-21T10:39:39;38.92;;;18.83;;
10657;SDS011;5377;43.276;26.930;2023-11-21T10:42:09;22.88;;;15.00;;
10657;SDS011;5377;43.276;26.930;2023-11-21T10:44:36;23.08;;;15.27;;
10657;SDS011;5377;43.276;26.930;2023-11-21T10:47:03;25.67;;;13.25;;
10657;SDS011;5377;43.276;26.930;2023-11-21T10:49:30;20.20;;;13.27;;
10657;SDS011;5377;43.276;26.930;2023-11-21T10:51:57;20.88;;;14.20;;
10657;SDS011;5377;43.276;26.930;2023-11-21T10:54:24;29.48;;;15.18;;
10657;SDS011;5377;43.276;26.930;2023-11-21T10:56:59;26.27;;;13.40;;
10657;SDS011;5377;43.276;26.930;2023-11-21T10:59:28;29.02;;;12.27;;
10657;SDS011;5377;43.276;26.930;2023-11-21T11:01:57;22.60;;;10.80;;
10657;SDS011;5377;43.276;26.930;2023-11-21T11:04:27;27.17;;;13.30;;
10657;SDS011;5377;43.276;26.930;2023-11-21T11:06:55;32.20;;;14.60;;
10657;SDS011;5377;43.276;26.930;2023-11-21T11:09:24;46.42;;;11.93;;
10657;SDS011;5377;43.276;26.930;2023-11-21T11:11:53;21.48;;;8.55;;
10657;SDS011;5377;43.276;26.930;2023-11-21T11:14:20;14.13;;;7.03;;
10657;SDS011;5377;43.276;26.930;2023-11-21T11:16:52;21.80;;;7.13;;
10657;SDS011;5377;43.276;26.930;2023-11-21T11:19:20;19.40;;;9.88;;
10657;SDS011;5377;43.276;26.930;2023-11-21T11:21:50;13.98;;;7.15;;
10657;SDS011;5377;43.276;26.930;2023-11-21T11:24:28;20.00;;;7.35;;
10657;SDS011;5377;43.276;26.930;2023-11-21T11:27:18;11.77;;;5.50;;
10657;SDS011;5377;43.276;26.930;2023-11-21T11:29:56;23.48;;;7.55;;
10657;SDS011;5377;43.276;26.930;2023-11-21T11:32:34;12.10;;;4.68;;
10657;SDS011;5377;43.276;26.930;2023-11-21T11:35:10;12.73;;;4.03;;
10657;SDS011;5377;43.276;26.930;2023-11-21T11:37:43;13.45;;;4.97;;
10657;SDS011;5377;43.276;26.930;2023-11-21T11:40:11;20.20;;;6.18;;
10657;SDS011;5377;43.276;26.930;2023-11-21T11:42:40;15.13;;;4.40;;
10657;SDS011;5377;43.276;26.930;2023-11-21T11:45:22;4.78;;;3.08;;
10657;SDS011;5377;43.276;26.930;2023-11-21T11:47:56;7.53;;;2.95;;
10657;SDS011;5377;43.276;26.930;2023-11-21T11:50:23;7.05;;;2.58;;
10657;SDS011;5377;43.276;26.930;2023-11-21T11:52:51;7.35;;;2.13;;
10657;SDS011;5377;43.276;26.930;2023-11-21T11:55:20;8.05;;;2.65;;
10657;SDS011;5377;43.276;26.930;2023-11-21T11:57:49;6.03;;;1.98;;
10657;SDS011;5377;43.276;26.930;2023-11-21T12:00:17;9.57;;;2.45;;
10657;SDS011;5377;43.276;26.930;2023-11-21T12:02:46;5.80;;;2.28;;
10657;SDS011;5377;43.276;26.930;2023-11-21T12:05:15;6.40;;;1.98;;
10657;SDS011;5377;43.276;26.930;2023-11-21T12:07:47;5.15;;;1.98;;
10657;SDS011;5377;43.276;26.930;2023-11-21T12:10:16;4.25;;;1.90;;
10657;SDS011;5377;43.276;26.930;2023-11-21T12:12:47;11.65;;;3.28;;
10657;SDS011;5377;43.276;26.930;2023-11-21T12:15:17;4.85;;;2.33;;
10657;SDS011;5377;43.276;26.930;2023-11-21T12:17:45;6.55;;;3.30;;
10657;SDS011;5377;43.276;26.930;2023-11-21T12:20:13;6.65;;;2.33;;
10657;SDS011;5377;43.276;26.930;2023-11-21T12:22:43;6.35;;;3.45;;
10657;SDS011;5377;43.276;26.930;2023-11-21T12:25:13;3.92;;;2.47;;
10657;SDS011;5377;43.276;26.930;2023-11-21T12:27:41;6.47;;;1.25;;
10657;SDS011;5377;43.276;26.930;2023-11-21T12:30:12;5.97;;;2.17;;
10657;SDS011;5377;43.276;26.930;2023-11-21T12:32:40;13.77;;;5.32;;
10657;SDS011;5377;43.276;26.930;2023-11-21T12:35:08;7.75;;;3.08;;
10657;SDS011;5377;43.276;26.930;2023-11-21T12:37:36;12.95;;;4.75;;
10657;SDS011;5377;43.276;26.930;2023-11-21T12:40:05;11.77;;;3.80;;
10657;SDS011;5377;43.276;26.930;2023-11-21T12:42:33;30.58;;;6.53;;
10657;SDS011;5377;43.276;26.930;2023-11-21T12:45:10;9.95;;;2.72;;
10657;SDS011;5377;43.276;26.930;2023-11-21T12:47:45;10.35;;;4.38;;
10657;SDS011;5377;43.276;26.930;2023-11-21T12:50:13;15.90;;;4.97;;
10657;SDS011;5377;43.276;26.930;2023-11-21T12:52:41;24.63;;;6.80;;
10657;SDS011;5377;43.276;26.930;2023-11-21T12:55:13;19.90;;;4.20;;
10657;SDS011;5377;43.276;26.930;2023-11-21T12:57:42;9.63;;;3.70;;
10657;SDS011;5377;43.276;26.930;2023-11-21T13:00:10;13.77;;;5.22;;
10657;SDS011;5377;43.276;26.930;2023-11-21T13:02:51;8.80;;;3.72;;
10657;SDS011;5377;43.276;26.930;2023-11-21T13:05:26;7.93;;;3.70;;
10657;SDS011;5377;43.276;26.930;2023-11-21T13:07:53;17.00;;;4.82;;
10657;SDS011;5377;43.276;26.930;2023-11-21T13:10:23;8.55;;;2.85;;
10657;SDS011;5377;43.276;26.930;2023-11-21T13:12:54;17.95;;;4.50;;
10657;SDS011;5377;43.276;26.930;2023-11-21T13:15:24;10.40;;;3.15;;
10657;SDS011;5377;43.276;26.930;2023-11-21T13:17:52;18.40;;;5.10;;
10657;SDS011;5377;43.276;26.930;2023-11-21T13:20:21;19.75;;;4.70;;
10657;SDS011;5377;43.276;26.930;2023-11-21T13:22:48;12.93;;;4.25;;
10657;SDS011;5377;43.276;26.930;2023-11-21T13:25:17;24.10;;;7.15;;
10657;SDS011;5377;43.276;26.930;2023-11-21T13:27:44;15.70;;;4.57;;
10657;SDS011;5377;43.276;26.930;2023-11-21T13:30:12;16.77;;;4.63;;
10657;SDS011;5377;43.276;26.930;2023-11-21T13:32:43;17.98;;;4.30;;
10657;SDS011;5377;43.276;26.930;2023-11-21T13:35:11;7.30;;;2.88;;
10657;SDS011;5377;43.276;26.930;2023-11-21T13:37:49;12.05;;;3.10;;
10657;SDS011;5377;43.276;26.930;2023-11-21T13:40:19;14.88;;;4.13;;
10657;SDS011;5377;43.276;26.930;2023-11-21T13:42:52;15.02;;;2.95;;
10657;SDS011;5377;43.276;26.930;2023-11-21T13:45:24;7.72;;;2.50;;
10657;SDS011;5377;43.276;26.930;2023-11-21T13:47:54;10.93;;;4.82;;
10657;SDS011;5377;43.276;26.930;2023-11-21T13:50:24;20.25;;;6.20;;
10657;SDS011;5377;43.276;26.930;2023-11-21T13:52:55;13.52;;;5.00;;
10657;SDS011;5377;43.276;26.930;2023-11-21T13:55:23;12.98;;;4.82;;
10657;SDS011;5377;43.276;26.930;2023-11-21T13:57:50;22.85;;;6.28;;
10657;SDS011;5377;43.276;26.930;2023-11-21T14:00:18;14.25;;;5.88;;
10657;SDS011;5377;43.276;26.930;2023-11-21T14:03:03;18.77;;;10.63;;
10657;SDS011;5377;43.276;26.930;2023-11-21T14:05:34;23.83;;;9.55;;
10657;SDS011;5377;43.276;26.930;2023-11-21T14:08:01;47.20;;;11.13;;
10657;SDS011;5377;43.276;26.930;2023-11-21T14:10:30;40.03;;;11.70;;
10657;SDS011;5377;43.276;26.930;2023-11-21T14:13:05;37.97;;;11.52;;
10657;SDS011;5377;43.276;26.930;2023-11-21T14:15:32;48.08;;;11.55;;
10657;SDS011;5377;43.276;26.930;2023-11-21T14:18:04;39.03;;;10.73;;
10657;SDS011;5377;43.276;26.930;2023-11-21T14:20:35;45.05;;;12.07;;
10657;SDS011;5377;43.276;26.930;2023-11-21T14:23:02;35.10;;;13.98;;
10657;SDS011;5377;43.276;26.930;2023-11-21T14:25:29;31.02;;;12.02;;
10657;SDS011;5377;43.276;26.930;2023-11-21T14:27:57;30.17;;;12.50;;
10657;SDS011;5377;43.276;26.930;2023-11-21T14:30:24;31.15;;;17.30;;
10657;SDS011;5377;43.276;26.930;2023-11-21T14:32:52;48.25;;;18.90;;